sensor_id;sensor_type;location;lat;lon;timestamp;temperature;humidity
69204;DHT22;56317;27.658;85.326;2022-08-25T00:01:32;20.90;99.90
69204;DHT22;56317;27.658;85.326;2022-08-25T00:04:00;20.80;99.90
69204;DHT22;56317;27.658;85.326;2022-08-25T00:06:28;20.80;99.90
69204;DHT22;56317;27.658;85.326;2022-08-25T00:08:56;20.80;99.90
69204;DHT22;56317;27.658;85.326;2022-08-25T00:11:27;20.80;99.90
69204;DHT22;56317;27.658;85.326;2022-08-25T00:13:58;20.80;99.90
69204;DHT22;56317;27.658;85.326;2022-08-25T00:16:25;20.80;99.90
69204;DHT22;56317;27.658;85.326;2022-08-25T00:18:55;20.80;99.90
69204;DHT22;56317;27.658;85.326;2022-08-25T00:21:24;20.80;99.90
69204;DHT22;56317;27.658;85.326;2022-08-25T00:23:52;20.80;99.90
69204;DHT22;56317;27.658;85.326;2022-08-25T00:26:19;20.80;99.90
69204;DHT22;56317;27.658;85.326;2022-08-25T00:28:46;20.80;99.90
69204;DHT22;56317;27.658;85.326;2022-08-25T00:31:16;20.90;99.90
69204;DHT22;56317;27.658;85.326;2022-08-25T00:33:45;20.90;99.90
69204;DHT22;56317;27.658;85.326;2022-08-25T00:36:13;21.00;99.90
69204;DHT22;56317;27.658;85.326;2022-08-25T00:38:43;21.00;99.90
69204;DHT22;56317;27.658;85.326;2022-08-25T00:41:13;21.10;99.90
69204;DHT22;56317;27.658;85.326;2022-08-25T00:46:16;21.20;99.90
69204;DHT22;56317;27.658;85.326;2022-08-25T00:48:47;21.30;99.90
69204;DHT22;56317;27.658;85.326;2022-08-25T00:51:27;21.30;99.90
69204;DHT22;56317;27.658;85.326;2022-08-25T00:53:56;21.40;99.90
69204;DHT22;56317;27.658;85.326;2022-08-25T00:56:24;21.50;99.90
69204;DHT22;56317;27.658;85.326;2022-08-25T00:58:53;21.60;99.90
69204;DHT22;56317;27.658;85.326;2022-08-25T01:01:20;21.70;99.90
69204;DHT22;56317;27.658;85.326;2022-08-25T01:03:47;21.80;99.90
69204;DHT22;56317;27.658;85.326;2022-08-25T01:06:14;21.90;99.90
69204;DHT22;56317;27.658;85.326;2022-08-25T01:08:42;22.10;99.90
69204;DHT22;56317;27.658;85.326;2022-08-25T01:11:10;22.20;99.90
69204;DHT22;56317;27.658;85.326;2022-08-25T01:13:43;22.30;99.90
69204;DHT22;56317;27.658;85.326;2022-08-25T01:16:14;22.40;99.90
69204;DHT22;56317;27.658;85.326;2022-08-25T01:18:48;22.60;99.90
69204;DHT22;56317;27.658;85.326;2022-08-25T01:21:17;22.70;99.90
69204;DHT22;56317;27.658;85.326;2022-08-25T01:23:46;22.80;99.90
69204;DHT22;56317;27.658;85.326;2022-08-25T01:26:17;22.90;99.90
69204;DHT22;56317;27.658;85.326;2022-08-25T01:28:46;23.10;99.90
69204;DHT22;56317;27.658;85.326;2022-08-25T01:31:37;23.30;99.90
69204;DHT22;56317;27.658;85.326;2022-08-25T01:34:06;23.50;99.90
69204;DHT22;56317;27.658;85.326;2022-08-25T01:36:34;23.60;99.90
69204;DHT22;56317;27.658;85.326;2022-08-25T01:39:03;23.80;99.90
69204;DHT22;56317;27.658;85.326;2022-08-25T01:44:02;24.10;99.90
69204;DHT22;56317;27.658;85.326;2022-08-25T01:46:32;24.40;99.90
69204;DHT22;56317;27.658;85.326;2022-08-25T01:49:01;24.70;99.90
69204;DHT22;56317;27.658;85.326;2022-08-25T01:51:32;25.00;99.90
69204;DHT22;56317;27.658;85.326;2022-08-25T01:53:59;25.40;99.90
69204;DHT22;56317;27.658;85.326;2022-08-25T01:56:26;25.60;99.90
69204;DHT22;56317;27.658;85.326;2022-08-25T01:58:53;25.80;99.90
69204;DHT22;56317;27.658;85.326;2022-08-25T02:01:23;25.90;99.90
69204;DHT22;56317;27.658;85.326;2022-08-25T02:03:53;26.20;99.90
69204;DHT22;56317;27.658;85.326;2022-08-25T02:06:27;26.40;99.90
69204;DHT22;56317;27.658;85.326;2022-08-25T02:09:00;26.60;99.90
69204;DHT22;56317;27.658;85.326;2022-08-25T02:11:30;26.90;99.90
69204;DHT22;56317;27.658;85.326;2022-08-25T02:13:58;27.10;99.90
69204;DHT22;56317;27.658;85.326;2022-08-25T02:16:29;27.40;99.90
69204;DHT22;56317;27.658;85.326;2022-08-25T02:18:57;27.50;99.90
69204;DHT22;56317;27.658;85.326;2022-08-25T02:21:25;27.50;99.90
69204;DHT22;56317;27.658;85.326;2022-08-25T02:23:53;27.70;99.90
69204;DHT22;56317;27.658;85.326;2022-08-25T02:26:20;27.80;99.90
69204;DHT22;56317;27.658;85.326;2022-08-25T02:28:48;27.90;99.90
69204;DHT22;56317;27.658;85.326;2022-08-25T02:31:18;28.00;99.90
69204;DHT22;56317;27.658;85.326;2022-08-25T02:33:45;28.00;99.90
69204;DHT22;56317;27.658;85.326;2022-08-25T02:36:12;27.90;99.90
69204;DHT22;56317;27.658;85.326;2022-08-25T02:38:40;27.80;99.90
69204;DHT22;56317;27.658;85.326;2022-08-25T02:41:16;27.60;99.90
69204;DHT22;56317;27.658;85.326;2022-08-25T02:43:47;27.50;99.90
69204;DHT22;56317;27.658;85.326;2022-08-25T02:46:15;27.30;99.90
69204;DHT22;56317;27.658;85.326;2022-08-25T02:48:43;27.20;99.90
69204;DHT22;56317;27.658;85.326;2022-08-25T02:51:10;27.20;99.90
69204;DHT22;56317;27.658;85.326;2022-08-25T02:53:39;27.10;99.90
69204;DHT22;56317;27.658;85.326;2022-08-25T02:56:08;27.00;99.90
69204;DHT22;56317;27.658;85.326;2022-08-25T02:58:37;26.70;99.90
69204;DHT22;56317;27.658;85.326;2022-08-25T03:01:06;26.50;99.90
69204;DHT22;56317;27.658;85.326;2022-08-25T03:03:38;26.20;99.90
69204;DHT22;56317;27.658;85.326;2022-08-25T03:06:07;26.10;99.90
69204;DHT22;56317;27.658;85.326;2022-08-25T03:08:35;26.00;99.90
69204;DHT22;56317;27.658;85.326;2022-08-25T03:11:03;25.80;99.90
69204;DHT22;56317;27.658;85.326;2022-08-25T03:13:31;25.80;99.90
69204;DHT22;56317;27.658;85.326;2022-08-25T03:15:59;25.90;99.90
69204;DHT22;56317;27.658;85.326;2022-08-25T03:18:28;25.90;99.90
69204;DHT22;56317;27.658;85.326;2022-08-25T03:20:56;26.00;99.90
69204;DHT22;56317;27.658;85.326;2022-08-25T03:23:23;26.20;99.90
69204;DHT22;56317;27.658;85.326;2022-08-25T03:25:53;26.20;99.90
69204;DHT22;56317;27.658;85.326;2022-08-25T03:28:39;26.30;99.90
69204;DHT22;56317;27.658;85.326;2022-08-25T03:31:07;26.30;99.90
69204;DHT22;56317;27.658;85.326;2022-08-25T03:33:35;26.50;99.90
69204;DHT22;56317;27.658;85.326;2022-08-25T03:36:05;26.60;99.90
69204;DHT22;56317;27.658;85.326;2022-08-25T03:38:32;26.70;99.90
69204;DHT22;56317;27.658;85.326;2022-08-25T03:40:59;27.00;99.90
69204;DHT22;56317;27.658;85.326;2022-08-25T03:43:27;27.60;99.90
69204;DHT22;56317;27.658;85.326;2022-08-25T03:45:54;28.40;99.60
69204;DHT22;56317;27.658;85.326;2022-08-25T03:48:22;29.00;97.20
69204;DHT22;56317;27.658;85.326;2022-08-25T03:50:50;29.40;96.20
69204;DHT22;56317;27.658;85.326;2022-08-25T03:53:20;29.50;95.90
69204;DHT22;56317;27.658;85.326;2022-08-25T03:55:48;29.40;95.20
69204;DHT22;56317;27.658;85.326;2022-08-25T03:58:15;29.30;95.20
69204;DHT22;56317;27.658;85.326;2022-08-25T04:00:43;29.20;95.10
69204;DHT22;56317;27.658;85.326;2022-08-25T04:03:10;29.20;94.70
69204;DHT22;56317;27.658;85.326;2022-08-25T04:05:38;29.50;92.80
69204;DHT22;56317;27.658;85.326;2022-08-25T04:08:05;30.00;93.20
69204;DHT22;56317;27.658;85.326;2022-08-25T04:10:33;30.50;92.60
69204;DHT22;56317;27.658;85.326;2022-08-25T04:13:00;30.90;90.80
69204;DHT22;56317;27.658;85.326;2022-08-25T04:15:27;31.30;90.20
69204;DHT22;56317;27.658;85.326;2022-08-25T04:17:55;31.40;87.20
69204;DHT22;56317;27.658;85.326;2022-08-25T04:20:24;31.50;86.70
69204;DHT22;56317;27.658;85.326;2022-08-25T04:22:51;32.00;86.00
69204;DHT22;56317;27.658;85.326;2022-08-25T04:25:18;32.00;85.40
69204;DHT22;56317;27.658;85.326;2022-08-25T04:27:45;32.20;82.20
69204;DHT22;56317;27.658;85.326;2022-08-25T04:30:13;32.20;81.70
69204;DHT22;56317;27.658;85.326;2022-08-25T04:32:40;32.00;80.60
69204;DHT22;56317;27.658;85.326;2022-08-25T04:35:10;31.70;80.50
69204;DHT22;56317;27.658;85.326;2022-08-25T04:37:37;31.60;80.00
69204;DHT22;56317;27.658;85.326;2022-08-25T04:40:05;31.40;80.10
69204;DHT22;56317;27.658;85.326;2022-08-25T04:42:33;31.40;81.10
69204;DHT22;56317;27.658;85.326;2022-08-25T04:45:00;31.30;81.00
69204;DHT22;56317;27.658;85.326;2022-08-25T04:47:29;31.20;80.90
69204;DHT22;56317;27.658;85.326;2022-08-25T04:49:56;31.10;80.90
69204;DHT22;56317;27.658;85.326;2022-08-25T04:52:23;31.00;81.90
69204;DHT22;56317;27.658;85.326;2022-08-25T04:54:51;30.90;82.10
69204;DHT22;56317;27.658;85.326;2022-08-25T04:57:18;30.80;81.70
69204;DHT22;56317;27.658;85.326;2022-08-25T04:59:45;30.60;82.40
69204;DHT22;56317;27.658;85.326;2022-08-25T05:02:12;30.90;83.00
69204;DHT22;56317;27.658;85.326;2022-08-25T05:04:40;31.40;83.70
69204;DHT22;56317;27.658;85.326;2022-08-25T05:07:07;31.90;81.80
69204;DHT22;56317;27.658;85.326;2022-08-25T05:09:34;32.50;81.30
69204;DHT22;56317;27.658;85.326;2022-08-25T05:12:03;33.10;80.20
69204;DHT22;56317;27.658;85.326;2022-08-25T05:14:31;33.10;76.30
69204;DHT22;56317;27.658;85.326;2022-08-25T05:16:59;33.10;75.60
69204;DHT22;56317;27.658;85.326;2022-08-25T05:19:26;32.80;77.10
69204;DHT22;56317;27.658;85.326;2022-08-25T05:21:53;32.50;77.90
69204;DHT22;56317;27.658;85.326;2022-08-25T05:24:21;32.30;76.40
69204;DHT22;56317;27.658;85.326;2022-08-25T05:26:49;32.60;76.40
69204;DHT22;56317;27.658;85.326;2022-08-25T05:29:16;32.90;74.10
69204;DHT22;56317;27.658;85.326;2022-08-25T05:31:44;33.50;74.10
69204;DHT22;56317;27.658;85.326;2022-08-25T05:34:11;33.40;73.20
69204;DHT22;56317;27.658;85.326;2022-08-25T05:36:38;32.90;74.30
69204;DHT22;56317;27.658;85.326;2022-08-25T05:39:09;32.70;74.80
69204;DHT22;56317;27.658;85.326;2022-08-25T05:41:36;32.90;77.00
69204;DHT22;56317;27.658;85.326;2022-08-25T05:44:04;33.30;76.30
69204;DHT22;56317;27.658;85.326;2022-08-25T05:46:32;33.70;74.10
69204;DHT22;56317;27.658;85.326;2022-08-25T05:49:00;33.70;73.40
69204;DHT22;56317;27.658;85.326;2022-08-25T05:51:30;34.10;75.00
69204;DHT22;56317;27.658;85.326;2022-08-25T05:53:57;34.00;72.70
69204;DHT22;56317;27.658;85.326;2022-08-25T05:56:26;33.70;72.80
69204;DHT22;56317;27.658;85.326;2022-08-25T05:58:53;33.80;74.30
69204;DHT22;56317;27.658;85.326;2022-08-25T06:01:26;34.20;72.70
69204;DHT22;56317;27.658;85.326;2022-08-25T06:04:14;34.70;69.90
69204;DHT22;56317;27.658;85.326;2022-08-25T06:06:41;35.30;69.50
69204;DHT22;56317;27.658;85.326;2022-08-25T06:09:09;35.70;68.40
69204;DHT22;56317;27.658;85.326;2022-08-25T06:11:38;36.00;65.50
69204;DHT22;56317;27.658;85.326;2022-08-25T06:14:06;36.20;66.40
69204;DHT22;56317;27.658;85.326;2022-08-25T06:16:34;37.10;64.80
69204;DHT22;56317;27.658;85.326;2022-08-25T06:19:01;39.10;62.70
69204;DHT22;56317;27.658;85.326;2022-08-25T06:21:28;42.00;56.60
69204;DHT22;56317;27.658;85.326;2022-08-25T06:23:56;44.10;53.20
69204;DHT22;56317;27.658;85.326;2022-08-25T06:26:23;45.80;49.90
69204;DHT22;56317;27.658;85.326;2022-08-25T06:28:52;47.40;46.10
69204;DHT22;56317;27.658;85.326;2022-08-25T06:31:19;48.20;44.80
69204;DHT22;56317;27.658;85.326;2022-08-25T06:33:48;48.80;43.80
69204;DHT22;56317;27.658;85.326;2022-08-25T06:36:15;49.30;42.60
69204;DHT22;56317;27.658;85.326;2022-08-25T06:38:42;50.50;41.60
69204;DHT22;56317;27.658;85.326;2022-08-25T06:41:10;51.40;39.30
69204;DHT22;56317;27.658;85.326;2022-08-25T06:43:39;52.60;38.70
69204;DHT22;56317;27.658;85.326;2022-08-25T06:46:14;53.30;38.40
69204;DHT22;56317;27.658;85.326;2022-08-25T06:48:41;54.20;36.10
69204;DHT22;56317;27.658;85.326;2022-08-25T06:51:12;54.40;35.50
69204;DHT22;56317;27.658;85.326;2022-08-25T06:53:39;53.40;35.50
69204;DHT22;56317;27.658;85.326;2022-08-25T06:56:06;53.90;35.60
69204;DHT22;56317;27.658;85.326;2022-08-25T06:58:33;54.50;34.70
69204;DHT22;56317;27.658;85.326;2022-08-25T07:01:22;54.70;34.70
69204;DHT22;56317;27.658;85.326;2022-08-25T07:03:53;54.90;34.80
69204;DHT22;56317;27.658;85.326;2022-08-25T07:06:23;55.00;34.50
69204;DHT22;56317;27.658;85.326;2022-08-25T07:08:51;55.80;34.60
69204;DHT22;56317;27.658;85.326;2022-08-25T07:11:19;56.70;32.70
69204;DHT22;56317;27.658;85.326;2022-08-25T07:13:47;56.30;32.40
69204;DHT22;56317;27.658;85.326;2022-08-25T07:16:15;56.20;33.00
69204;DHT22;56317;27.658;85.326;2022-08-25T07:18:43;56.90;33.10
69204;DHT22;56317;27.658;85.326;2022-08-25T07:21:12;57.30;32.30
69204;DHT22;56317;27.658;85.326;2022-08-25T07:23:40;57.00;32.40
69204;DHT22;56317;27.658;85.326;2022-08-25T07:26:12;56.40;31.50
69204;DHT22;56317;27.658;85.326;2022-08-25T07:28:40;56.70;32.70
69204;DHT22;56317;27.658;85.326;2022-08-25T07:31:08;57.80;31.90
69204;DHT22;56317;27.658;85.326;2022-08-25T07:33:35;58.60;30.50
69204;DHT22;56317;27.658;85.326;2022-08-25T07:36:03;58.10;31.00
69204;DHT22;56317;27.658;85.326;2022-08-25T07:38:30;58.40;30.30
69204;DHT22;56317;27.658;85.326;2022-08-25T07:41:02;58.80;30.90
69204;DHT22;56317;27.658;85.326;2022-08-25T07:43:29;58.70;30.00
69204;DHT22;56317;27.658;85.326;2022-08-25T07:45:56;58.90;30.00
69204;DHT22;56317;27.658;85.326;2022-08-25T07:48:24;59.40;29.70
69204;DHT22;56317;27.658;85.326;2022-08-25T07:50:51;59.80;29.90
69204;DHT22;56317;27.658;85.326;2022-08-25T07:53:18;59.30;29.80
69204;DHT22;56317;27.658;85.326;2022-08-25T07:55:46;59.40;29.50
69204;DHT22;56317;27.658;85.326;2022-08-25T07:58:13;59.20;29.60
69204;DHT22;56317;27.658;85.326;2022-08-25T08:00:41;58.90;29.50
69204;DHT22;56317;27.658;85.326;2022-08-25T08:03:09;58.70;29.20
69204;DHT22;56317;27.658;85.326;2022-08-25T08:05:39;59.00;29.10
69204;DHT22;56317;27.658;85.326;2022-08-25T08:08:06;58.90;28.80
69204;DHT22;56317;27.658;85.326;2022-08-25T08:10:34;59.10;29.30
69204;DHT22;56317;27.658;85.326;2022-08-25T08:13:04;59.30;28.80
69204;DHT22;56317;27.658;85.326;2022-08-25T08:15:31;58.80;29.10
69204;DHT22;56317;27.658;85.326;2022-08-25T08:17:59;57.90;29.80
69204;DHT22;56317;27.658;85.326;2022-08-25T08:20:27;58.20;30.30
69204;DHT22;56317;27.658;85.326;2022-08-25T08:22:54;59.10;30.00
69204;DHT22;56317;27.658;85.326;2022-08-25T08:25:21;59.90;28.90
69204;DHT22;56317;27.658;85.326;2022-08-25T08:27:49;59.80;29.50
69204;DHT22;56317;27.658;85.326;2022-08-25T08:30:16;59.90;29.00
69204;DHT22;56317;27.658;85.326;2022-08-25T08:32:44;60.60;29.00
69204;DHT22;56317;27.658;85.326;2022-08-25T08:35:11;60.50;29.30
69204;DHT22;56317;27.658;85.326;2022-08-25T08:37:38;59.60;29.90
69204;DHT22;56317;27.658;85.326;2022-08-25T08:40:07;57.90;30.30
69204;DHT22;56317;27.658;85.326;2022-08-25T08:42:49;56.80;31.40
69204;DHT22;56317;27.658;85.326;2022-08-25T08:45:30;55.70;32.10
69204;DHT22;56317;27.658;85.326;2022-08-25T08:51:25;51.10;33.40
69204;DHT22;56317;27.658;85.326;2022-08-25T08:56:37;48.90;37.30
69204;DHT22;56317;27.658;85.326;2022-08-25T08:59:12;49.90;37.40
69204;DHT22;56317;27.658;85.326;2022-08-25T09:01:54;50.20;36.50
69204;DHT22;56317;27.658;85.326;2022-08-25T09:04:46;51.00;36.30
69204;DHT22;56317;27.658;85.326;2022-08-25T09:07:21;51.40;36.10
69204;DHT22;56317;27.658;85.326;2022-08-25T09:09:49;51.70;35.80
69204;DHT22;56317;27.658;85.326;2022-08-25T09:25:50;51.10;35.20
69204;DHT22;56317;27.658;85.326;2022-08-25T09:31:03;52.10;34.20
69204;DHT22;56317;27.658;85.326;2022-08-25T09:33:32;52.40;34.10
69204;DHT22;56317;27.658;85.326;2022-08-25T09:36:00;52.70;34.10
69204;DHT22;56317;27.658;85.326;2022-08-25T09:38:28;52.70;33.80
69204;DHT22;56317;27.658;85.326;2022-08-25T09:40:59;52.00;34.10
69204;DHT22;56317;27.658;85.326;2022-08-25T09:43:50;51.50;34.20
69204;DHT22;56317;27.658;85.326;2022-08-25T09:46:23;48.30;36.00
69204;DHT22;56317;27.658;85.326;2022-08-25T09:48:52;47.70;37.70
69204;DHT22;56317;27.658;85.326;2022-08-25T09:51:33;48.50;36.90
69204;DHT22;56317;27.658;85.326;2022-08-25T09:54:04;49.20;36.80
69204;DHT22;56317;27.658;85.326;2022-08-25T09:56:33;46.60;37.10
69204;DHT22;56317;27.658;85.326;2022-08-25T09:59:31;42.80;41.10
69204;DHT22;56317;27.658;85.326;2022-08-25T10:02:03;39.30;46.50
69204;DHT22;56317;27.658;85.326;2022-08-25T10:04:36;39.70;49.00
69204;DHT22;56317;27.658;85.326;2022-08-25T10:07:28;38.90;47.50
69204;DHT22;56317;27.658;85.326;2022-08-25T10:09:59;36.70;50.00
69204;DHT22;56317;27.658;85.326;2022-08-25T10:15:22;40.60;48.50
69204;DHT22;56317;27.658;85.326;2022-08-25T10:17:50;39.00;47.10
69204;DHT22;56317;27.658;85.326;2022-08-25T10:20:25;36.20;50.90
69204;DHT22;56317;27.658;85.326;2022-08-25T10:23:12;34.30;55.30
69204;DHT22;56317;27.658;85.326;2022-08-25T10:25:46;32.90;57.90
69204;DHT22;56317;27.658;85.326;2022-08-25T10:28:52;33.70;59.60
69204;DHT22;56317;27.658;85.326;2022-08-25T10:31:29;38.60;52.80
69204;DHT22;56317;27.658;85.326;2022-08-25T10:34:21;41.00;47.90
69204;DHT22;56317;27.658;85.326;2022-08-25T10:42:49;40.90;46.70
69204;DHT22;56317;27.658;85.326;2022-08-25T10:45:20;38.20;49.40
69204;DHT22;56317;27.658;85.326;2022-08-25T10:57:15;35.50;57.60
69204;DHT22;56317;27.658;85.326;2022-08-25T11:07:57;38.70;49.90
69204;DHT22;56317;27.658;85.326;2022-08-25T11:10:46;37.10;53.30
69204;DHT22;56317;27.658;85.326;2022-08-25T11:18:49;40.20;48.60
69204;DHT22;56317;27.658;85.326;2022-08-25T11:24:40;35.30;53.30
69204;DHT22;56317;27.658;85.326;2022-08-25T11:27:34;33.70;58.30
69204;DHT22;56317;27.658;85.326;2022-08-25T11:30:12;32.60;60.40
69204;DHT22;56317;27.658;85.326;2022-08-25T11:32:44;31.30;64.00
69204;DHT22;56317;27.658;85.326;2022-08-25T11:35:16;30.20;66.80
69204;DHT22;56317;27.658;85.326;2022-08-25T11:41:23;29.10;70.80
69204;DHT22;56317;27.658;85.326;2022-08-25T11:49:24;27.70;77.30
69204;DHT22;56317;27.658;85.326;2022-08-25T11:51:52;27.30;78.60
69204;DHT22;56317;27.658;85.326;2022-08-25T11:54:42;27.20;80.20
69204;DHT22;56317;27.658;85.326;2022-08-25T11:57:22;27.00;82.00
69204;DHT22;56317;27.658;85.326;2022-08-25T12:02:38;26.50;84.40
69204;DHT22;56317;27.658;85.326;2022-08-25T12:08:05;26.10;86.80
69204;DHT22;56317;27.658;85.326;2022-08-25T12:11:04;25.90;89.70
69204;DHT22;56317;27.658;85.326;2022-08-25T12:13:46;25.80;89.80
69204;DHT22;56317;27.658;85.326;2022-08-25T12:38:06;24.80;96.10
69204;DHT22;56317;27.658;85.326;2022-08-25T12:40:53;24.70;97.20
69204;DHT22;56317;27.658;85.326;2022-08-25T12:43:32;24.60;97.70
69204;DHT22;56317;27.658;85.326;2022-08-25T12:56:54;24.20;99.90
69204;DHT22;56317;27.658;85.326;2022-08-25T12:59:31;24.10;99.90
69204;DHT22;56317;27.658;85.326;2022-08-25T13:10:47;23.90;99.90
69204;DHT22;56317;27.658;85.326;2022-08-25T13:16:19;23.80;99.90
69204;DHT22;56317;27.658;85.326;2022-08-25T13:18:47;23.80;99.90
69204;DHT22;56317;27.658;85.326;2022-08-25T13:21:39;23.70;99.90
69204;DHT22;56317;27.658;85.326;2022-08-25T13:24:14;23.70;99.90
69204;DHT22;56317;27.658;85.326;2022-08-25T13:26:43;23.70;99.90
69204;DHT22;56317;27.658;85.326;2022-08-25T13:29:22;23.60;99.90
69204;DHT22;56317;27.658;85.326;2022-08-25T13:32:19;23.60;99.90
69204;DHT22;56317;27.658;85.326;2022-08-25T13:34:50;23.60;99.90
69204;DHT22;56317;27.658;85.326;2022-08-25T13:37:23;23.60;99.90
69204;DHT22;56317;27.658;85.326;2022-08-25T13:40:10;23.60;99.90
69204;DHT22;56317;27.658;85.326;2022-08-25T13:42:43;23.60;99.90
69204;DHT22;56317;27.658;85.326;2022-08-25T13:45:19;23.60;99.90
69204;DHT22;56317;27.658;85.326;2022-08-25T13:47:48;23.50;99.90
69204;DHT22;56317;27.658;85.326;2022-08-25T13:50:32;23.50;99.90
69204;DHT22;56317;27.658;85.326;2022-08-25T13:53:22;23.50;99.90
69204;DHT22;56317;27.658;85.326;2022-08-25T13:55:58;23.50;99.90
69204;DHT22;56317;27.658;85.326;2022-08-25T13:58:31;23.50;99.90
69204;DHT22;56317;27.658;85.326;2022-08-25T14:01:12;23.30;99.90
69204;DHT22;56317;27.658;85.326;2022-08-25T14:03:42;23.30;99.90
69204;DHT22;56317;27.658;85.326;2022-08-25T14:06:21;23.20;99.90
69204;DHT22;56317;27.658;85.326;2022-08-25T14:09:07;23.20;99.90
69204;DHT22;56317;27.658;85.326;2022-08-25T14:11:47;23.10;99.90
69204;DHT22;56317;27.658;85.326;2022-08-25T14:16:57;23.00;99.90
69204;DHT22;56317;27.658;85.326;2022-08-25T14:19:26;23.00;99.90
69204;DHT22;56317;27.658;85.326;2022-08-25T14:21:54;23.10;99.90
69204;DHT22;56317;27.658;85.326;2022-08-25T14:24:24;23.00;99.90
69204;DHT22;56317;27.658;85.326;2022-08-25T14:26:52;23.00;99.90
69204;DHT22;56317;27.658;85.326;2022-08-25T14:29:19;23.00;99.90
69204;DHT22;56317;27.658;85.326;2022-08-25T14:31:47;22.90;99.90
69204;DHT22;56317;27.658;85.326;2022-08-25T14:34:18;22.90;99.90
69204;DHT22;56317;27.658;85.326;2022-08-25T14:36:46;22.80;99.90
69204;DHT22;56317;27.658;85.326;2022-08-25T14:39:15;22.80;99.90
69204;DHT22;56317;27.658;85.326;2022-08-25T14:41:43;22.80;99.90
69204;DHT22;56317;27.658;85.326;2022-08-25T14:44:13;22.80;99.90
69204;DHT22;56317;27.658;85.326;2022-08-25T14:46:48;22.70;99.90
69204;DHT22;56317;27.658;85.326;2022-08-25T14:49:23;22.70;99.90
69204;DHT22;56317;27.658;85.326;2022-08-25T14:51:52;22.70;99.90
69204;DHT22;56317;27.658;85.326;2022-08-25T14:54:27;22.70;99.90
69204;DHT22;56317;27.658;85.326;2022-08-25T14:56:54;22.60;99.90
69204;DHT22;56317;27.658;85.326;2022-08-25T14:59:22;22.60;99.90
69204;DHT22;56317;27.658;85.326;2022-08-25T15:01:50;22.60;99.90
69204;DHT22;56317;27.658;85.326;2022-08-25T15:04:21;22.60;99.90
69204;DHT22;56317;27.658;85.326;2022-08-25T15:06:52;22.60;99.90
69204;DHT22;56317;27.658;85.326;2022-08-25T15:09:20;22.60;99.90
69204;DHT22;56317;27.658;85.326;2022-08-25T15:11:51;22.60;99.90
69204;DHT22;56317;27.658;85.326;2022-08-25T15:14:22;22.60;99.90
69204;DHT22;56317;27.658;85.326;2022-08-25T15:16:53;22.60;99.90
69204;DHT22;56317;27.658;85.326;2022-08-25T15:19:24;22.60;99.90
69204;DHT22;56317;27.658;85.326;2022-08-25T15:21:53;22.60;99.90
69204;DHT22;56317;27.658;85.326;2022-08-25T15:24:21;22.60;99.90
69204;DHT22;56317;27.658;85.326;2022-08-25T15:27:02;22.60;99.90
69204;DHT22;56317;27.658;85.326;2022-08-25T15:29:32;22.60;99.90
69204;DHT22;56317;27.658;85.326;2022-08-25T15:32:06;22.60;99.90
69204;DHT22;56317;27.658;85.326;2022-08-25T15:34:35;22.60;99.90
69204;DHT22;56317;27.658;85.326;2022-08-25T15:37:12;22.60;99.90
69204;DHT22;56317;27.658;85.326;2022-08-25T15:39:41;22.70;99.90
69204;DHT22;56317;27.658;85.326;2022-08-25T15:42:11;22.70;99.90
69204;DHT22;56317;27.658;85.326;2022-08-25T15:44:39;22.60;99.90
69204;DHT22;56317;27.658;85.326;2022-08-25T15:47:07;22.60;99.90
69204;DHT22;56317;27.658;85.326;2022-08-25T15:49:37;22.60;99.90
69204;DHT22;56317;27.658;85.326;2022-08-25T15:52:04;22.60;99.90
69204;DHT22;56317;27.658;85.326;2022-08-25T15:54:31;22.60;99.90
69204;DHT22;56317;27.658;85.326;2022-08-25T15:56:59;22.60;99.90
69204;DHT22;56317;27.658;85.326;2022-08-25T15:59:27;22.70;99.90
69204;DHT22;56317;27.658;85.326;2022-08-25T16:01:54;22.60;99.90
69204;DHT22;56317;27.658;85.326;2022-08-25T16:04:27;22.60;99.90
69204;DHT22;56317;27.658;85.326;2022-08-25T16:06:54;22.70;99.90
69204;DHT22;56317;27.658;85.326;2022-08-25T16:09:22;22.60;99.90
69204;DHT22;56317;27.658;85.326;2022-08-25T16:11:49;22.60;99.90
69204;DHT22;56317;27.658;85.326;2022-08-25T16:14:16;22.60;99.90
69204;DHT22;56317;27.658;85.326;2022-08-25T16:16:43;22.60;99.90
69204;DHT22;56317;27.658;85.326;2022-08-25T16:19:11;22.60;99.90
69204;DHT22;56317;27.658;85.326;2022-08-25T16:21:40;22.60;99.90
69204;DHT22;56317;27.658;85.326;2022-08-25T16:24:07;22.70;99.90
69204;DHT22;56317;27.658;85.326;2022-08-25T16:26:36;22.70;99.90
69204;DHT22;56317;27.658;85.326;2022-08-25T16:29:08;22.70;99.90
69204;DHT22;56317;27.658;85.326;2022-08-25T16:31:37;22.70;99.90
69204;DHT22;56317;27.658;85.326;2022-08-25T16:34:04;22.70;99.90
69204;DHT22;56317;27.658;85.326;2022-08-25T16:36:32;22.70;99.90
69204;DHT22;56317;27.658;85.326;2022-08-25T16:38:59;22.70;99.90
69204;DHT22;56317;27.658;85.326;2022-08-25T16:41:29;22.70;99.90
69204;DHT22;56317;27.658;85.326;2022-08-25T16:44:08;22.70;99.90
69204;DHT22;56317;27.658;85.326;2022-08-25T16:46:35;22.70;99.90
69204;DHT22;56317;27.658;85.326;2022-08-25T16:49:05;22.70;99.90
69204;DHT22;56317;27.658;85.326;2022-08-25T16:51:32;22.70;99.90
69204;DHT22;56317;27.658;85.326;2022-08-25T16:53:59;22.70;99.90
69204;DHT22;56317;27.658;85.326;2022-08-25T16:56:44;22.70;99.90
69204;DHT22;56317;27.658;85.326;2022-08-25T16:59:12;22.70;99.90
69204;DHT22;56317;27.658;85.326;2022-08-25T17:01:40;22.70;99.90
69204;DHT22;56317;27.658;85.326;2022-08-25T17:04:08;22.70;99.90
69204;DHT22;56317;27.658;85.326;2022-08-25T17:06:39;22.70;99.90
69204;DHT22;56317;27.658;85.326;2022-08-25T17:09:08;22.70;99.90
69204;DHT22;56317;27.658;85.326;2022-08-25T17:11:41;22.70;99.90
69204;DHT22;56317;27.658;85.326;2022-08-25T17:14:16;22.70;99.90
69204;DHT22;56317;27.658;85.326;2022-08-25T17:16:45;22.70;99.90
69204;DHT22;56317;27.658;85.326;2022-08-25T17:19:14;22.70;99.90
69204;DHT22;56317;27.658;85.326;2022-08-25T17:21:43;22.70;99.90
69204;DHT22;56317;27.658;85.326;2022-08-25T17:24:12;22.70;99.90
69204;DHT22;56317;27.658;85.326;2022-08-25T17:26:42;22.60;99.90
69204;DHT22;56317;27.658;85.326;2022-08-25T17:29:11;22.60;99.90
69204;DHT22;56317;27.658;85.326;2022-08-25T17:31:38;22.60;99.90
69204;DHT22;56317;27.658;85.326;2022-08-25T17:34:08;22.60;99.90
69204;DHT22;56317;27.658;85.326;2022-08-25T17:36:36;22.60;99.90
69204;DHT22;56317;27.658;85.326;2022-08-25T17:39:04;22.50;99.90
69204;DHT22;56317;27.658;85.326;2022-08-25T17:41:32;22.50;99.90